createdAt,value
2018-10-03T00:00:01.728Z,30.47
2018-10-03T00:02:30.172Z,28.17
2018-10-03T00:04:58.617Z,30.17
2018-10-03T00:07:27.012Z,22.80
2018-10-03T00:09:55.523Z,38.87
2018-10-03T00:12:24.054Z,26.47
2018-10-03T00:14:52.401Z,24.37
2018-10-03T00:17:20.832Z,30.27
2018-10-03T00:19:49.267Z,32.13
2018-10-03T00:22:17.719Z,32.27
2018-10-03T00:24:46.124Z,36.30
2018-10-03T00:27:14.560Z,31.73
2018-10-03T00:29:43.003Z,38.10
2018-10-03T00:32:11.508Z,25.50
2018-10-03T00:34:40.055Z,24.40
2018-10-03T00:37:08.611Z,32.47
2018-10-03T00:39:37.233Z,27.73
2018-10-03T00:42:06.369Z,26.27
2018-10-03T00:44:36.832Z,38.57
2018-10-03T00:47:05.252Z,31.63
2018-10-03T00:49:34.243Z,42.83
2018-10-03T00:52:02.668Z,33.43
2018-10-03T00:54:31.105Z,35.43
2018-10-03T00:56:59.552Z,29.77
2018-10-03T00:59:28.047Z,33.83
2018-10-03T01:01:56.475Z,27.57
2018-10-03T01:04:24.859Z,29.37
2018-10-03T01:06:53.245Z,36.60
2018-10-03T01:09:21.749Z,33.53
2018-10-03T01:11:50.183Z,35.33
2018-10-03T01:14:18.630Z,43.23
2018-10-03T01:16:47.042Z,27.67
2018-10-03T01:19:15.545Z,35.50
2018-10-03T01:21:44.042Z,33.47
2018-10-03T01:24:12.437Z,31.57
2018-10-03T01:26:40.823Z,38.60
2018-10-03T01:29:09.192Z,33.30
2018-10-03T01:31:37.620Z,33.73
2018-10-03T01:34:05.992Z,38.83
2018-10-03T01:36:34.385Z,38.60
2018-10-03T01:39:02.768Z,35.50
2018-10-03T01:41:31.113Z,34.90
2018-10-03T01:43:59.545Z,35.53
2018-10-03T01:46:27.969Z,42.53
2018-10-03T01:48:56.359Z,27.63
2018-10-03T01:51:24.739Z,35.53
2018-10-03T01:53:53.093Z,47.00
2018-10-03T01:56:21.451Z,28.90
2018-10-03T01:58:49.811Z,25.70
2018-10-03T02:01:18.219Z,21.17
2018-10-03T02:03:46.582Z,29.43
2018-10-03T02:06:15.005Z,28.87
2018-10-03T02:08:43.431Z,28.57
2018-10-03T02:11:11.903Z,26.53
2018-10-03T02:13:40.299Z,31.60
2018-10-03T02:16:08.779Z,24.30
2018-10-03T02:18:37.213Z,16.33
2018-10-03T02:21:05.664Z,27.37
2018-10-03T02:23:34.091Z,24.60
2018-10-03T02:26:02.502Z,19.50
2018-10-03T02:28:31.980Z,27.90
2018-10-03T02:31:00.377Z,41.87
2018-10-03T02:33:28.828Z,31.93
2018-10-03T02:35:57.267Z,24.90
2018-10-03T02:38:25.680Z,26.97
2018-10-03T02:40:54.060Z,24.97
2018-10-03T02:43:22.497Z,30.20
2018-10-03T02:45:50.920Z,34.50
2018-10-03T02:48:19.328Z,26.83
2018-10-03T02:50:47.745Z,33.90
2018-10-03T02:53:16.175Z,38.70
2018-10-03T02:55:44.575Z,34.57
2018-10-03T02:58:12.985Z,28.13
2018-10-03T03:00:41.453Z,27.70
2018-10-03T03:03:09.962Z,29.93
2018-10-03T03:05:38.512Z,28.37
2018-10-03T03:08:06.940Z,31.27
2018-10-03T03:10:35.459Z,29.20
2018-10-03T03:13:03.907Z,29.67
2018-10-03T03:15:32.324Z,33.80
2018-10-03T03:18:00.774Z,28.97
2018-10-03T03:20:29.179Z,28.90
2018-10-03T03:22:57.603Z,21.77
2018-10-03T03:25:26.110Z,36.43
2018-10-03T03:27:55.493Z,30.60
2018-10-03T03:30:23.936Z,25.93
2018-10-03T03:32:52.353Z,31.93
2018-10-03T03:35:20.819Z,31.07
2018-10-03T03:37:49.232Z,28.07
2018-10-03T03:40:17.692Z,28.30
2018-10-03T03:42:46.104Z,32.43
2018-10-03T03:45:14.495Z,26.63
2018-10-03T03:47:42.914Z,27.47
2018-10-03T03:50:11.324Z,26.87
2018-10-03T03:52:39.739Z,28.77
2018-10-03T03:55:08.168Z,30.83
2018-10-03T03:57:36.660Z,30.83
2018-10-03T04:00:05.120Z,18.37
2018-10-03T04:02:33.554Z,27.73
2018-10-03T04:05:01.965Z,31.70
2018-10-03T04:07:30.353Z,18.33
2018-10-03T04:09:58.776Z,19.70
2018-10-03T04:12:27.247Z,28.57
2018-10-03T04:14:55.659Z,29.23
2018-10-03T04:17:24.145Z,24.60
2018-10-03T04:19:52.520Z,23.67
2018-10-03T04:22:20.935Z,25.80
2018-10-03T04:24:49.283Z,30.87
2018-10-03T04:27:17.647Z,31.20
2018-10-03T04:29:46.013Z,25.43
2018-10-03T04:32:14.373Z,26.27
2018-10-03T04:34:42.755Z,30.53
2018-10-03T04:37:11.111Z,36.70
2018-10-03T04:39:39.520Z,27.00
2018-10-03T04:42:07.948Z,28.10
2018-10-03T04:44:36.402Z,23.67
2018-10-03T04:47:04.767Z,32.40
2018-10-03T04:49:33.398Z,28.90
2018-10-03T04:52:01.861Z,24.70
2018-10-03T04:54:30.286Z,38.53
2018-10-03T04:56:58.724Z,33.53
2018-10-03T04:59:27.075Z,35.43
2018-10-03T05:01:55.484Z,27.20
2018-10-03T05:04:23.900Z,30.40
2018-10-03T05:06:52.383Z,25.93
2018-10-03T05:09:24.656Z,29.77
2018-10-03T05:11:53.035Z,22.90
2018-10-03T05:14:21.865Z,31.87
2018-10-03T05:16:50.264Z,25.17
2018-10-03T05:19:18.673Z,32.73
2018-10-03T05:21:47.273Z,26.73
2018-10-03T05:24:15.838Z,28.90
2018-10-03T05:26:44.361Z,24.70
2018-10-03T05:29:12.780Z,25.17
2018-10-03T05:31:41.225Z,29.73
2018-10-03T05:34:09.599Z,34.20
2018-10-03T05:36:38.005Z,26.30
2018-10-03T05:39:08.827Z,23.40
2018-10-03T05:41:37.392Z,30.03
2018-10-03T05:44:05.952Z,26.83
2018-10-03T05:46:34.429Z,25.90
2018-10-03T05:49:02.905Z,31.60
2018-10-03T05:51:32.375Z,27.53
2018-10-03T05:54:00.864Z,31.13
2018-10-03T05:56:29.342Z,32.57
2018-10-03T05:58:57.818Z,32.60
2018-10-03T06:01:26.275Z,28.53
2018-10-03T06:03:54.715Z,31.60
2018-10-03T06:06:23.177Z,32.27
2018-10-03T06:08:51.688Z,27.10
2018-10-03T06:11:20.214Z,41.57
2018-10-03T06:13:48.721Z,28.10
2018-10-03T06:16:17.163Z,35.57
2018-10-03T06:18:45.731Z,43.67
2018-10-03T06:21:14.041Z,35.90
2018-10-03T06:23:42.508Z,22.73
2018-10-03T06:26:11.939Z,34.53
2018-10-03T06:28:40.372Z,32.70
2018-10-03T06:31:09.643Z,28.47
2018-10-03T06:33:39.006Z,26.53
2018-10-03T06:36:09.105Z,41.77
2018-10-03T06:38:37.620Z,20.73
2018-10-03T06:41:06.133Z,29.57
2018-10-03T06:43:34.700Z,27.73
2018-10-03T06:46:03.238Z,25.20
2018-10-03T06:48:31.705Z,29.67
2018-10-03T06:51:00.242Z,27.13
2018-10-03T06:53:28.683Z,29.80
2018-10-03T06:55:57.179Z,23.00
2018-10-03T06:58:25.655Z,16.20
2018-10-03T07:00:54.092Z,23.57
2018-10-03T07:03:23.641Z,25.73
2018-10-03T07:05:52.137Z,21.17
2018-10-03T07:08:21.527Z,27.23
2018-10-03T07:10:50.044Z,27.27
2018-10-03T07:13:18.498Z,25.83
2018-10-03T07:15:47.899Z,28.77
2018-10-03T07:18:16.445Z,31.97
2018-10-03T07:20:45.793Z,25.43
2018-10-03T07:23:14.592Z,30.20
2018-10-03T07:25:43.032Z,29.03
2018-10-03T07:28:11.370Z,30.27
2018-10-03T07:30:39.876Z,26.23
2018-10-03T07:33:08.371Z,28.37
2018-10-03T07:35:36.753Z,33.83
2018-10-03T07:38:05.136Z,28.57
2018-10-03T07:40:33.555Z,20.07
2018-10-03T07:43:01.882Z,24.90
2018-10-03T07:45:30.280Z,23.40
2018-10-03T07:47:58.676Z,28.17
2018-10-03T07:50:27.187Z,36.03
2018-10-03T07:52:55.607Z,23.87
2018-10-03T07:55:25.059Z,29.93
2018-10-03T07:57:53.725Z,15.80
2018-10-03T08:00:28.326Z,26.77
2018-10-03T08:02:57.056Z,26.40
2018-10-03T08:05:25.799Z,21.60
2018-10-03T08:07:55.379Z,24.97
2018-10-03T08:10:23.883Z,26.13
2018-10-03T08:12:53.324Z,25.20
2018-10-03T08:15:21.653Z,23.37
2018-10-03T08:17:50.073Z,22.90
2018-10-03T08:20:18.500Z,30.43
2018-10-03T08:22:47.872Z,26.37
2018-10-03T08:25:16.304Z,17.77
2018-10-03T08:27:44.740Z,18.40
2018-10-03T08:30:13.151Z,24.50
2018-10-03T08:32:41.589Z,18.37
2018-10-03T08:35:09.988Z,21.00
2018-10-03T08:37:38.454Z,10.73
2018-10-03T08:40:07.055Z,21.53
2018-10-03T08:42:35.476Z,24.70
2018-10-03T08:45:06.147Z,21.90
2018-10-03T08:47:34.544Z,24.80
2018-10-03T08:50:02.998Z,19.90
2018-10-03T08:52:31.440Z,25.87
2018-10-03T08:55:00.142Z,35.53
2018-10-03T08:57:28.595Z,21.23
2018-10-03T08:59:56.997Z,22.13
2018-10-03T09:02:25.423Z,17.60
2018-10-03T09:04:53.981Z,22.53
2018-10-03T09:07:22.394Z,18.07
2018-10-03T09:09:51.105Z,18.40
2018-10-03T09:12:19.584Z,18.50
2018-10-03T09:14:48.128Z,23.60
2018-10-03T09:17:16.636Z,26.07
2018-10-03T09:19:45.123Z,20.10
2018-10-03T09:22:14.666Z,21.03
2018-10-03T09:24:43.183Z,21.63
2018-10-03T09:27:11.733Z,26.47
2018-10-03T09:29:40.273Z,14.10
2018-10-03T09:32:08.712Z,13.23
2018-10-03T09:34:37.217Z,18.07
2018-10-03T09:37:05.663Z,31.00
2018-10-03T09:39:34.209Z,30.40
2018-10-03T09:42:02.764Z,19.67
2018-10-03T09:44:32.232Z,23.73
2018-10-03T09:47:00.614Z,15.53
2018-10-03T09:49:29.011Z,17.63
2018-10-03T09:51:57.421Z,22.03
2018-10-03T09:54:25.855Z,20.67
2018-10-03T09:56:54.684Z,27.50
2018-10-03T09:59:23.131Z,19.70
2018-10-03T10:01:55.295Z,18.80
2018-10-03T10:04:23.830Z,22.37
2018-10-03T10:06:52.225Z,16.77
2018-10-03T10:09:20.804Z,16.67
2018-10-03T10:11:49.215Z,21.10
2018-10-03T10:14:17.620Z,10.23
2018-10-03T10:16:46.028Z,19.63
2018-10-03T10:19:14.540Z,18.60
2018-10-03T10:21:42.974Z,13.40
2018-10-03T10:24:11.480Z,21.00
2018-10-03T10:26:39.935Z,18.63
2018-10-03T10:29:08.388Z,19.70
2018-10-03T10:31:37.899Z,16.60
2018-10-03T10:34:06.292Z,20.90
2018-10-03T10:36:34.732Z,12.70
2018-10-03T10:39:03.252Z,20.77
2018-10-03T10:41:31.917Z,18.20
2018-10-03T10:44:00.238Z,11.57
2018-10-03T10:46:28.730Z,22.23
2018-10-03T10:48:57.238Z,14.27
2018-10-03T10:51:25.721Z,16.17
2018-10-03T10:53:54.271Z,18.93
2018-10-03T10:56:22.672Z,20.37
2018-10-03T10:58:51.072Z,20.70
2018-10-03T11:01:19.504Z,13.13
2018-10-03T11:03:47.908Z,22.30
2018-10-03T11:06:16.376Z,15.30
2018-10-03T11:08:44.776Z,25.20
2018-10-03T11:11:13.205Z,14.87
2018-10-03T11:13:41.760Z,19.10
2018-10-03T11:16:10.171Z,15.70
2018-10-03T11:18:38.563Z,26.40
2018-10-03T11:21:07.067Z,14.70
2018-10-03T11:23:35.575Z,15.83
2018-10-03T11:26:04.896Z,21.50
2018-10-03T11:28:33.376Z,25.20
2018-10-03T11:31:01.809Z,16.27
2018-10-03T11:33:32.275Z,13.93
2018-10-03T11:36:00.704Z,21.23
2018-10-03T11:38:29.191Z,9.93
2018-10-03T11:40:57.724Z,18.80
2018-10-03T11:43:26.201Z,20.87
2018-10-03T11:45:54.693Z,17.83
2018-10-03T11:48:24.127Z,14.80
2018-10-03T11:50:52.616Z,14.67
2018-10-03T11:53:21.133Z,17.07
2018-10-03T11:55:49.696Z,13.53
2018-10-03T11:58:18.276Z,16.67
2018-10-03T12:00:47.868Z,18.60
2018-10-03T12:03:16.578Z,15.00
2018-10-03T12:05:44.951Z,14.13
2018-10-03T12:08:13.394Z,25.93
2018-10-03T12:10:41.873Z,21.83
2018-10-03T12:13:10.376Z,14.03
2018-10-03T12:15:40.825Z,18.13
2018-10-03T12:18:09.321Z,12.13
2018-10-03T12:20:37.815Z,12.10
2018-10-03T12:23:06.282Z,14.97
2018-10-03T12:25:34.796Z,18.40
2018-10-03T12:28:03.336Z,12.90
2018-10-03T12:30:31.728Z,15.23
2018-10-03T12:33:00.170Z,15.07
2018-10-03T12:35:34.024Z,17.63
2018-10-03T12:38:02.854Z,12.33
2018-10-03T12:40:31.843Z,16.93
2018-10-03T12:43:00.353Z,15.70
2018-10-03T12:45:30.088Z,17.33
2018-10-03T12:47:58.779Z,18.70
2018-10-03T12:50:27.762Z,20.73
2018-10-03T12:52:56.123Z,13.63
2018-10-03T12:55:24.595Z,16.00
2018-10-03T12:57:52.972Z,15.73
2018-10-03T13:00:21.483Z,19.47
2018-10-03T13:02:49.855Z,13.10
2018-10-03T13:05:18.232Z,15.40
2018-10-03T13:07:46.619Z,15.07
2018-10-03T13:10:14.998Z,17.33
2018-10-03T13:12:43.363Z,16.53
2018-10-03T13:15:11.788Z,6.50
2018-10-03T13:17:40.278Z,10.37
2018-10-03T13:20:08.952Z,9.70
2018-10-03T13:22:37.418Z,6.80
2018-10-03T13:25:05.908Z,19.40
2018-10-03T13:27:34.325Z,18.03
2018-10-03T13:30:02.737Z,12.33
2018-10-03T13:32:31.252Z,12.13
2018-10-03T13:34:59.687Z,15.70
2018-10-03T13:37:29.129Z,15.87
2018-10-03T13:39:57.582Z,16.67
2018-10-03T13:42:26.054Z,14.63
2018-10-03T13:44:54.447Z,18.50
2018-10-03T13:47:22.895Z,18.83
2018-10-03T13:49:51.343Z,15.60
2018-10-03T13:52:19.876Z,9.40
2018-10-03T13:54:48.353Z,12.87
2018-10-03T13:57:17.852Z,17.33
2018-10-03T13:59:46.305Z,17.93
2018-10-03T14:02:14.877Z,20.13
2018-10-03T14:04:43.400Z,17.00
2018-10-03T14:07:11.848Z,11.50
2018-10-03T14:09:40.272Z,12.93
2018-10-03T14:12:08.660Z,7.73
2018-10-03T14:14:37.078Z,9.37
2018-10-03T14:17:05.489Z,17.37
2018-10-03T14:19:33.828Z,12.83
2018-10-03T14:22:03.340Z,14.93
2018-10-03T14:24:31.863Z,15.50
2018-10-03T14:27:00.249Z,11.03
2018-10-03T14:29:28.684Z,15.00
2018-10-03T14:31:57.099Z,28.87
2018-10-03T14:34:25.567Z,10.70
2018-10-03T14:36:53.971Z,15.40
2018-10-03T14:39:22.497Z,14.00
2018-10-03T14:41:54.905Z,11.83
2018-10-03T14:44:23.346Z,13.77
2018-10-03T14:46:51.772Z,14.90
2018-10-03T14:49:20.237Z,17.87
2018-10-03T14:51:49.792Z,14.03
2018-10-03T14:54:18.248Z,13.13
2018-10-03T14:56:48.735Z,16.77
2018-10-03T14:59:18.042Z,15.87
2018-10-03T15:01:46.841Z,15.67
2018-10-03T15:04:16.316Z,21.63
2018-10-03T15:06:44.872Z,12.80
2018-10-03T15:09:19.875Z,17.97
2018-10-03T15:11:48.208Z,14.77
2018-10-03T15:14:16.595Z,17.30
2018-10-03T15:16:45.043Z,16.93
2018-10-03T15:19:13.463Z,11.57
2018-10-03T15:21:41.768Z,13.23
2018-10-03T15:24:10.285Z,19.43
2018-10-03T15:26:38.803Z,10.30
2018-10-03T15:29:07.296Z,10.40
2018-10-03T15:31:36.862Z,13.70
2018-10-03T15:34:05.502Z,13.50
2018-10-03T15:36:34.149Z,14.13
2018-10-03T15:39:02.621Z,11.80
2018-10-03T15:41:31.176Z,15.33
2018-10-03T15:43:59.628Z,10.33
2018-10-03T15:46:28.136Z,20.20
2018-10-03T15:48:56.599Z,15.77
2018-10-03T15:51:25.256Z,20.23
2018-10-03T15:53:53.758Z,19.23
2018-10-03T15:56:22.362Z,12.70
2018-10-03T15:58:50.948Z,16.00
2018-10-03T16:01:20.385Z,15.27
2018-10-03T16:03:48.864Z,13.80
2018-10-03T16:06:17.412Z,12.47
2018-10-03T16:08:45.819Z,13.43
2018-10-03T16:11:14.260Z,10.37
2018-10-03T16:13:42.655Z,14.00
2018-10-03T16:16:11.220Z,14.47
2018-10-03T16:18:39.784Z,18.67
2018-10-03T16:21:08.420Z,12.57
2018-10-03T16:23:36.923Z,10.37
2018-10-03T16:26:05.493Z,11.83
2018-10-03T16:28:34.092Z,15.03
2018-10-03T16:31:02.656Z,17.20
2018-10-03T16:33:31.296Z,13.43
2018-10-03T16:35:59.925Z,14.90
2018-10-03T16:38:28.684Z,13.07
2018-10-03T16:40:57.208Z,16.67
2018-10-03T16:43:25.799Z,17.37
2018-10-03T16:45:54.472Z,21.83
2018-10-03T16:48:23.000Z,13.67
2018-10-03T16:50:51.484Z,11.13
2018-10-03T16:53:19.926Z,11.50
2018-10-03T16:55:48.394Z,13.00
2018-10-03T16:58:17.041Z,11.20
2018-10-03T17:00:45.529Z,11.30
2018-10-03T17:03:14.090Z,12.93
2018-10-03T17:05:42.638Z,16.60
2018-10-03T17:08:11.118Z,16.73
2018-10-03T17:10:39.593Z,24.67
2018-10-03T17:13:08.388Z,21.20
2018-10-03T17:15:36.892Z,19.57
2018-10-03T17:18:05.540Z,15.73
2018-10-03T17:20:34.081Z,16.13
2018-10-03T17:23:03.150Z,18.50
2018-10-03T17:25:31.916Z,11.50
2018-10-03T17:28:00.317Z,21.63
2018-10-03T17:30:28.783Z,10.73
2018-10-03T17:32:57.329Z,18.47
2018-10-03T17:35:25.861Z,14.93
2018-10-03T17:37:54.374Z,16.60
2018-10-03T17:40:22.861Z,13.77
2018-10-03T17:42:51.319Z,13.13
2018-10-03T17:45:19.923Z,10.37
2018-10-03T17:50:19.904Z,20.80
2018-10-03T17:52:48.456Z,15.80
2018-10-03T17:55:17.007Z,26.53
2018-10-03T17:57:45.464Z,12.20
2018-10-03T18:00:14.048Z,10.00
2018-10-03T18:02:42.464Z,23.67
2018-10-03T18:05:10.953Z,20.60
2018-10-03T18:07:39.484Z,13.77
2018-10-03T18:10:07.969Z,16.97
2018-10-03T18:12:36.524Z,19.37
2018-10-03T18:15:05.245Z,16.10
2018-10-03T18:17:33.822Z,12.13
2018-10-03T18:20:02.368Z,21.67
2018-10-03T18:22:30.864Z,15.60
2018-10-03T18:24:59.361Z,20.70
2018-10-03T18:27:27.784Z,26.83
2018-10-03T18:29:57.310Z,12.67
2018-10-03T18:32:26.636Z,18.33
2018-10-03T18:34:55.963Z,16.00
2018-10-03T18:37:25.482Z,15.13
2018-10-03T18:39:54.835Z,10.27
2018-10-03T18:42:24.068Z,14.20
2018-10-03T18:44:53.267Z,13.03
2018-10-03T18:47:22.121Z,14.83
2018-10-03T18:49:52.074Z,19.63
2018-10-03T18:52:21.507Z,17.30
2018-10-03T18:54:51.072Z,15.37
2018-10-03T18:57:20.769Z,18.03
2018-10-03T18:59:51.443Z,11.33
2018-10-03T19:02:21.515Z,21.60
2018-10-03T19:04:52.537Z,20.07
2018-10-03T19:07:21.985Z,14.63
2018-10-03T19:09:53.372Z,18.30
2018-10-03T19:12:24.572Z,14.10
2018-10-03T19:14:54.983Z,18.60
2018-10-03T19:17:23.447Z,13.10
2018-10-03T19:19:51.964Z,15.50
2018-10-03T19:22:20.449Z,11.83
2018-10-03T19:24:48.977Z,22.03
2018-10-03T19:27:17.442Z,16.77
2018-10-03T19:29:45.893Z,14.50
2018-10-03T19:32:14.338Z,13.53
2018-10-03T19:34:42.840Z,30.20
2018-10-03T19:37:11.296Z,24.30
2018-10-03T19:39:39.756Z,17.50
2018-10-03T19:42:08.245Z,20.20
2018-10-03T19:44:37.358Z,20.03
2018-10-03T19:47:06.390Z,14.97
2018-10-03T19:49:35.297Z,19.57
2018-10-03T19:52:04.586Z,13.37
2018-10-03T19:54:33.795Z,21.03
2018-10-03T19:57:02.847Z,21.40
2018-10-03T19:59:31.998Z,8.50
2018-10-03T20:02:01.029Z,16.33
2018-10-03T20:04:30.337Z,17.43
2018-10-03T20:06:59.808Z,26.87
2018-10-03T20:09:28.965Z,28.90
2018-10-03T20:11:58.298Z,18.23
2018-10-03T20:14:28.078Z,19.27
2018-10-03T20:16:57.461Z,18.90
2018-10-03T20:19:26.676Z,16.40
2018-10-03T20:21:55.542Z,16.80
2018-10-03T20:24:25.725Z,21.90
2018-10-03T20:26:54.818Z,19.47
2018-10-03T20:29:24.248Z,16.80
2018-10-03T20:31:53.498Z,18.67
2018-10-03T20:34:22.681Z,16.60
2018-10-03T20:36:51.369Z,19.03
2018-10-03T20:39:19.880Z,18.30
2018-10-03T20:41:48.600Z,20.10
2018-10-03T20:44:17.145Z,20.37
2018-10-03T20:46:45.648Z,18.80
2018-10-03T20:49:14.248Z,16.57
2018-10-03T20:51:42.777Z,13.97
2018-10-03T20:54:11.306Z,14.57
2018-10-03T20:56:39.745Z,15.87
2018-10-03T20:59:08.208Z,17.20
2018-10-03T21:01:36.812Z,16.93
2018-10-03T21:04:05.291Z,18.40
2018-10-03T21:06:34.026Z,14.63
2018-10-03T21:09:02.742Z,14.80
2018-10-03T21:11:31.717Z,20.73
2018-10-03T21:14:00.190Z,15.30
2018-10-03T21:16:28.736Z,18.00
2018-10-03T21:18:57.269Z,25.40
2018-10-03T21:21:25.775Z,18.43
2018-10-03T21:23:54.304Z,13.80
2018-10-03T21:26:22.844Z,21.93
2018-10-03T21:28:51.401Z,17.83
2018-10-03T21:31:19.857Z,15.90
2018-10-03T21:33:48.448Z,22.63
2018-10-03T21:36:16.934Z,20.67
2018-10-03T21:38:45.416Z,23.67
2018-10-03T21:41:13.896Z,22.70
2018-10-03T21:43:42.464Z,18.53
2018-10-03T21:46:10.895Z,26.67
2018-10-03T21:48:42.214Z,20.63
2018-10-03T21:51:10.720Z,22.40
2018-10-03T21:53:40.525Z,17.90
2018-10-03T21:56:08.904Z,16.57
2018-10-03T21:58:37.564Z,16.57
2018-10-03T22:01:06.029Z,18.17
2018-10-03T22:03:34.453Z,20.50
2018-10-03T22:06:02.904Z,18.17
2018-10-03T22:08:31.385Z,18.67
2018-10-03T22:10:59.836Z,14.17
2018-10-03T22:13:28.245Z,17.63
2018-10-03T22:15:56.686Z,22.97
2018-10-03T22:18:25.160Z,15.60
2018-10-03T22:20:53.620Z,22.20
2018-10-03T22:23:22.152Z,29.03
2018-10-03T22:25:50.626Z,28.03
2018-10-03T22:28:19.056Z,14.70
2018-10-03T22:30:47.506Z,23.57
2018-10-03T22:33:15.912Z,25.43
2018-10-03T22:35:44.367Z,20.00
2018-10-03T22:38:12.805Z,31.63
2018-10-03T22:40:41.230Z,36.13
2018-10-03T22:43:09.708Z,20.17
2018-10-03T22:45:38.156Z,18.40
2018-10-03T22:48:06.668Z,22.93
2018-10-03T22:50:35.160Z,20.80
2018-10-03T22:53:03.656Z,13.33
2018-10-03T22:55:32.178Z,24.00
2018-10-03T22:58:00.603Z,20.23
2018-10-03T23:00:29.266Z,21.10
2018-10-03T23:02:57.781Z,22.07
2018-10-03T23:05:26.246Z,21.17
2018-10-03T23:07:54.665Z,24.00
2018-10-03T23:10:23.164Z,19.23
2018-10-03T23:12:51.616Z,17.40
2018-10-03T23:15:19.996Z,27.50
2018-10-03T23:17:48.469Z,23.33
2018-10-03T23:20:17.016Z,19.77
2018-10-03T23:22:45.497Z,18.33
2018-10-03T23:25:14.073Z,16.10
2018-10-03T23:27:42.533Z,27.30
2018-10-03T23:30:10.980Z,17.00
2018-10-03T23:32:39.420Z,22.60
2018-10-03T23:35:07.922Z,20.50
2018-10-03T23:37:36.424Z,13.43
2018-10-03T23:40:05.043Z,21.73
2018-10-03T23:42:33.586Z,23.77
2018-10-03T23:45:02.018Z,23.40
2018-10-03T23:47:30.464Z,22.70
2018-10-03T23:49:59.088Z,24.47
2018-10-03T23:52:27.562Z,16.27
2018-10-03T23:54:55.992Z,20.43
2018-10-03T23:57:24.546Z,21.37
2018-10-03T23:59:53.153Z,22.63
